Time;durP1;ratioP1;P1;durP2;ratioP2;P2;SDS_P1;SDS_P2;PMS_P1;PMS_P2;Temp;Humidity;BMP_temperature;BMP_pressure;BME280_temperature;BME280_humidity;BME280_pressure;Samples;Min_cycle;Max_cycle;Signal;HPM_P1;HPM_P2
2021/08/20 00:01:09;;;;;;;6.03;1.33;;;18.10;99.90;;;;;;5040915;28;20032;-80
2021/08/20 00:03:35;;;;;;;4.20;1.20;;;18.00;99.90;;;;;;5027011;28;20096;-80
2021/08/20 00:06:01;;;;;;;3.92;1.40;;;17.90;99.90;;;;;;5024642;28;20075;-79
2021/08/20 00:08:26;;;;;;;3.10;1.30;;;17.80;99.90;;;;;;5043319;28;20032;-80
2021/08/20 00:10:52;;;;;;;4.72;1.20;;;17.70;99.90;;;;;;5040396;28;20708;-80
2021/08/20 00:13:18;;;;;;;3.88;1.05;;;17.80;99.90;;;;;;5022169;28;20021;-80
2021/08/20 00:15:45;;;;;;;6.28;1.98;;;17.70;99.90;;;;;;5026444;28;20032;-78
2021/08/20 00:18:11;;;;;;;3.33;1.27;;;17.80;99.90;;;;;;5037850;28;20037;-80
2021/08/20 00:20:37;;;;;;;2.95;1.30;;;17.80;99.90;;;;;;5026448;28;20024;-79
2021/08/20 00:23:03;;;;;;;2.92;1.33;;;17.80;99.90;;;;;;5042555;28;20032;-80
2021/08/20 00:25:29;;;;;;;2.78;1.23;;;17.80;99.90;;;;;;5025511;28;20032;-79
2021/08/20 00:27:55;;;;;;;3.67;1.30;;;17.80;99.90;;;;;;5042294;28;20306;-80
2021/08/20 00:30:21;;;;;;;2.95;1.10;;;17.90;99.90;;;;;;5044115;28;20018;-80
2021/08/20 00:32:46;;;;;;;2.50;1.10;;;17.90;99.90;;;;;;5037736;28;20091;-80
2021/08/20 00:35:13;;;;;;;2.70;1.08;;;17.80;99.90;;;;;;5041051;28;20095;-80
2021/08/20 00:37:38;;;;;;;4.97;1.50;;;17.80;99.90;;;;;;5040875;28;20464;-80
2021/08/20 00:40:05;;;;;;;5.80;1.52;;;17.80;99.90;;;;;;5039456;28;20029;-80
2021/08/20 00:42:32;;;;;;;3.33;1.35;;;17.70;99.90;;;;;;5040639;28;20473;-81
2021/08/20 00:44:57;;;;;;;3.15;1.38;;;17.80;99.90;;;;;;5042682;28;20013;-80
2021/08/20 00:47:23;;;;;;;4.68;1.48;;;17.80;99.90;;;;;;5042470;28;20025;-80
2021/08/20 00:49:50;;;;;;;3.22;1.35;;;17.80;99.90;;;;;;5023628;28;20033;-80
2021/08/20 00:52:16;;;;;;;4.32;1.20;;;17.80;99.90;;;;;;5022659;28;20709;-80
2021/08/20 00:54:41;;;;;;;2.97;1.10;;;17.80;99.90;;;;;;5043422;28;20013;-80
2021/08/20 00:57:07;;;;;;;2.22;1.17;;;17.80;99.90;;;;;;5042933;28;20027;-80
2021/08/20 00:59:33;;;;;;;2.65;1.10;;;17.90;99.90;;;;;;5040390;28;20668;-80
2021/08/20 01:01:59;;;;;;;2.92;1.25;;;17.80;99.90;;;;;;5042732;28;20439;-80
2021/08/20 01:04:25;;;;;;;5.95;1.58;;;17.90;99.90;;;;;;5026343;28;20014;-80
2021/08/20 01:06:54;;;;;;;4.05;1.42;;;17.80;99.90;;;;;;5041947;28;20025;-79
2021/08/20 01:09:20;;;;;;;4.25;1.35;;;17.80;99.90;;;;;;5043481;28;20470;-80
2021/08/20 01:11:46;;;;;;;5.18;1.40;;;17.80;99.90;;;;;;5024430;28;20450;-80
2021/08/20 01:14:16;;;;;;;4.07;1.60;;;17.80;99.90;;;;;;5027386;28;20017;-80
2021/08/20 01:16:42;;;;;;;3.53;1.35;;;17.80;99.90;;;;;;5041282;28;20056;-80
2021/08/20 01:19:08;;;;;;;2.97;1.50;;;17.80;99.90;;;;;;5041449;28;20405;-80
2021/08/20 01:21:34;;;;;;;4.28;1.77;;;17.80;99.90;;;;;;5045216;28;20086;-80
2021/08/20 01:24:01;;;;;;;3.45;1.35;;;17.80;99.90;;;;;;5041734;28;20013;-80
2021/08/20 01:26:28;;;;;;;4.10;1.30;;;17.90;99.90;;;;;;5040660;28;20025;-80
2021/08/20 01:28:54;;;;;;;4.22;1.70;;;17.80;99.90;;;;;;5042106;28;20025;-80
2021/08/20 01:31:21;;;;;;;4.85;1.35;;;17.70;99.90;;;;;;5026621;28;20021;-80
2021/08/20 01:33:47;;;;;;;3.58;1.20;;;17.70;99.90;;;;;;5037804;28;20033;-80
2021/08/20 01:36:13;;;;;;;3.70;1.40;;;17.70;99.90;;;;;;5046807;28;20032;-79
2021/08/20 01:38:51;;;;;;;3.97;1.70;;;17.70;99.90;;;;;;5044134;28;20032;-80
2021/08/20 01:41:18;;;;;;;3.85;1.55;;;17.70;99.90;;;;;;5026198;28;20017;-80
2021/08/20 01:43:44;;;;;;;3.72;1.48;;;17.60;99.90;;;;;;5044549;28;20477;-80
2021/08/20 01:46:10;;;;;;;5.50;1.50;;;17.70;99.90;;;;;;5027652;28;20025;-80
2021/08/20 01:48:46;;;;;;;3.78;1.17;;;17.60;99.90;;;;;;5028288;28;20082;-79
2021/08/20 01:51:13;;;;;;;4.45;1.55;;;17.70;99.90;;;;;;5040796;28;20139;-78
2021/08/20 01:53:40;;;;;;;3.95;1.30;;;17.60;99.90;;;;;;5041847;28;20040;-79
2021/08/20 01:56:06;;;;;;;6.13;1.25;;;17.60;99.90;;;;;;5043580;28;20038;-77
2021/08/20 01:58:31;;;;;;;3.55;1.45;;;17.60;99.90;;;;;;5025894;28;20053;-79
2021/08/20 02:00:57;;;;;;;3.95;1.75;;;17.50;99.90;;;;;;5049104;23;20056;-81
2021/08/20 02:03:22;;;;;;;4.28;1.30;;;17.50;99.90;;;;;;5044069;28;20052;-81
2021/08/20 02:05:48;;;;;;;5.80;1.38;;;17.50;99.90;;;;;;5025511;28;20367;-81
2021/08/20 02:08:14;;;;;;;5.43;1.58;;;17.60;99.90;;;;;;5042407;28;20396;-81
2021/08/20 02:10:39;;;;;;;4.90;1.50;;;17.60;99.90;;;;;;5041463;28;20485;-81
2021/08/20 02:13:05;;;;;;;4.72;1.77;;;17.60;99.90;;;;;;5040431;28;20033;-81
2021/08/20 02:15:31;;;;;;;4.07;1.40;;;17.60;99.90;;;;;;5026629;28;20025;-81
2021/08/20 02:17:56;;;;;;;5.70;1.52;;;17.60;99.90;;;;;;5039602;28;20044;-80
2021/08/20 02:20:22;;;;;;;4.93;2.00;;;17.60;99.90;;;;;;5021436;28;20021;-83
2021/08/20 02:22:48;;;;;;;3.72;1.30;;;17.60;99.90;;;;;;5042017;28;20041;-81
2021/08/20 02:25:13;;;;;;;3.75;1.65;;;17.50;99.90;;;;;;5037631;28;20029;-81
2021/08/20 02:27:39;;;;;;;4.45;1.42;;;17.50;99.90;;;;;;5040763;28;20022;-82
2021/08/20 02:30:05;;;;;;;5.43;1.42;;;17.60;99.90;;;;;;5024635;28;20084;-81
2021/08/20 02:32:30;;;;;;;4.38;1.33;;;17.60;99.90;;;;;;5026085;28;20116;-81
2021/08/20 02:34:56;;;;;;;3.95;1.70;;;17.60;99.90;;;;;;5041831;28;20037;-81
2021/08/20 02:37:22;;;;;;;3.63;1.33;;;17.60;99.90;;;;;;5043292;28;20041;-82
2021/08/20 02:39:47;;;;;;;3.63;1.30;;;17.60;99.90;;;;;;5041684;28;20017;-81
2021/08/20 02:42:13;;;;;;;5.22;1.50;;;17.50;99.90;;;;;;5019991;28;20086;-81
2021/08/20 02:44:39;;;;;;;2.92;1.05;;;17.50;99.90;;;;;;5041120;28;20059;-81
2021/08/20 02:47:04;;;;;;;4.40;1.48;;;17.50;99.90;;;;;;5024534;28;20109;-82
2021/08/20 02:49:30;;;;;;;3.45;1.50;;;17.50;99.90;;;;;;5043272;28;20022;-81
2021/08/20 02:51:56;;;;;;;4.68;1.42;;;17.50;99.90;;;;;;5043855;28;20055;-81
2021/08/20 02:54:21;;;;;;;2.08;1.00;;;17.50;99.90;;;;;;5028933;28;20025;-82
2021/08/20 02:56:47;;;;;;;6.00;1.50;;;17.50;99.90;;;;;;5026615;28;20024;-82
2021/08/20 02:59:12;;;;;;;3.80;1.48;;;17.50;99.90;;;;;;5043051;28;20037;-81
2021/08/20 03:01:38;;;;;;;2.70;1.17;;;17.50;99.90;;;;;;5023931;28;20029;-80
2021/08/20 03:04:04;;;;;;;3.63;1.10;;;17.50;99.90;;;;;;5026831;28;20021;-80
2021/08/20 03:06:30;;;;;;;3.05;1.45;;;17.50;99.90;;;;;;5046497;28;20056;-81
2021/08/20 03:08:56;;;;;;;4.38;1.35;;;17.50;99.90;;;;;;5042056;28;20026;-81
2021/08/20 03:11:22;;;;;;;3.45;1.17;;;17.50;99.90;;;;;;5046631;28;20033;-82
2021/08/20 03:13:47;;;;;;;3.78;1.08;;;17.50;99.90;;;;;;5028904;28;20021;-82
2021/08/20 03:16:13;;;;;;;2.80;1.27;;;17.50;99.90;;;;;;5026693;28;20083;-81
2021/08/20 03:18:39;;;;;;;3.10;1.30;;;17.40;99.90;;;;;;5044355;28;20071;-82
2021/08/20 03:21:04;;;;;;;4.60;1.77;;;17.40;99.90;;;;;;5044133;28;20547;-81
2021/08/20 03:23:30;;;;;;;3.65;1.20;;;17.40;99.90;;;;;;5043696;28;20021;-81
2021/08/20 03:25:55;;;;;;;3.20;1.38;;;17.40;99.90;;;;;;5040602;28;20026;-81
2021/08/20 03:28:21;;;;;;;2.95;1.30;;;17.40;99.90;;;;;;5044636;28;20025;-81
2021/08/20 03:30:47;;;;;;;3.90;1.40;;;17.50;99.90;;;;;;5027426;28;20021;-81
2021/08/20 03:33:12;;;;;;;2.88;1.38;;;17.40;99.90;;;;;;5034001;28;20033;-81
2021/08/20 03:35:38;;;;;;;3.28;1.30;;;17.40;99.90;;;;;;5027467;28;20032;-81
2021/08/20 03:38:03;;;;;;;2.72;1.20;;;17.40;99.90;;;;;;5042987;28;20081;-81
2021/08/20 03:40:29;;;;;;;5.53;1.42;;;17.40;99.90;;;;;;5044590;28;20052;-81
2021/08/20 03:42:56;;;;;;;4.32;1.30;;;17.40;99.90;;;;;;5039021;28;20021;-81
2021/08/20 03:45:22;;;;;;;3.88;1.30;;;17.50;99.90;;;;;;5043216;28;20083;-81
2021/08/20 03:47:48;;;;;;;2.47;1.05;;;17.40;99.90;;;;;;5026920;28;20017;-81
2021/08/20 03:50:14;;;;;;;2.90;1.50;;;17.40;99.90;;;;;;5039510;28;20081;-81
2021/08/20 03:52:40;;;;;;;5.35;1.40;;;17.40;99.90;;;;;;5026889;28;20029;-81
2021/08/20 03:55:06;;;;;;;6.57;1.33;;;17.40;99.90;;;;;;5024469;28;20131;-81
2021/08/20 03:57:32;;;;;;;3.70;1.52;;;17.40;99.90;;;;;;5026243;28;20029;-81
2021/08/20 03:59:57;;;;;;;2.53;1.23;;;17.50;99.90;;;;;;5041798;28;20018;-82
2021/08/20 04:02:23;;;;;;;4.18;1.73;;;17.40;99.90;;;;;;5044529;28;20021;-82
2021/08/20 04:04:49;;;;;;;8.10;1.67;;;17.40;99.90;;;;;;5044078;28;20017;-82
2021/08/20 04:07:19;;;;;;;4.32;1.40;;;17.40;99.90;;;;;;5041196;28;20087;-81
2021/08/20 04:09:45;;;;;;;3.25;1.30;;;17.40;99.90;;;;;;5041057;28;20021;-81
2021/08/20 04:12:11;;;;;;;3.80;1.65;;;17.40;99.90;;;;;;5041991;28;20115;-82
2021/08/20 04:14:37;;;;;;;2.67;1.10;;;17.40;99.90;;;;;;5028175;28;20065;-81
2021/08/20 04:17:02;;;;;;;3.15;1.20;;;17.40;99.90;;;;;;5023529;28;20052;-81
2021/08/20 04:19:28;;;;;;;3.10;1.20;;;17.40;99.90;;;;;;5046493;28;20022;-81
2021/08/20 04:21:53;;;;;;;3.33;1.30;;;17.40;99.90;;;;;;5043894;28;20112;-81
2021/08/20 04:24:19;;;;;;;3.65;1.40;;;17.40;99.90;;;;;;5045504;28;20522;-81
2021/08/20 04:26:45;;;;;;;3.67;1.27;;;17.40;99.90;;;;;;5045204;28;20028;-81
2021/08/20 04:29:11;;;;;;;3.22;1.48;;;17.40;99.90;;;;;;5023170;28;20025;-82
2021/08/20 04:31:37;;;;;;;2.67;1.40;;;17.40;99.90;;;;;;5039778;28;20021;-82
2021/08/20 04:34:03;;;;;;;4.35;1.40;;;17.40;99.90;;;;;;5042148;28;20022;-82
2021/08/20 04:36:28;;;;;;;3.78;1.48;;;17.30;99.90;;;;;;5041848;28;20026;-81
2021/08/20 04:38:54;;;;;;;3.90;1.25;;;17.30;99.90;;;;;;5042105;28;20128;-81
2021/08/20 04:41:20;;;;;;;4.00;1.17;;;17.30;99.90;;;;;;5025663;28;20048;-81
2021/08/20 04:43:45;;;;;;;3.35;1.10;;;17.30;99.90;;;;;;5026219;28;20061;-81
2021/08/20 04:46:11;;;;;;;2.47;1.17;;;17.30;99.90;;;;;;5021863;28;20029;-80
2021/08/20 04:48:36;;;;;;;4.95;1.30;;;17.30;99.90;;;;;;5043429;28;20025;-81
2021/08/20 04:51:02;;;;;;;2.95;1.20;;;17.30;99.90;;;;;;5041325;28;20085;-82
2021/08/20 04:53:30;;;;;;;3.97;1.38;;;17.30;99.90;;;;;;5043746;28;20441;-82
2021/08/20 04:55:59;;;;;;;4.03;1.20;;;17.30;99.90;;;;;;5021721;28;20029;-81
2021/08/20 04:58:25;;;;;;;3.45;1.33;;;17.30;99.90;;;;;;5020118;28;20018;-81
2021/08/20 05:00:51;;;;;;;3.75;1.20;;;17.20;99.90;;;;;;5020643;28;20060;-80
2021/08/20 05:03:17;;;;;;;5.00;1.15;;;17.20;99.90;;;;;;5025220;28;20028;-81
2021/08/20 05:05:44;;;;;;;3.85;1.15;;;17.20;99.90;;;;;;5043509;28;20025;-81
2021/08/20 05:08:10;;;;;;;3.22;1.20;;;17.20;99.90;;;;;;5041710;28;20029;-82
2021/08/20 05:10:36;;;;;;;4.40;1.20;;;17.20;99.90;;;;;;5043762;28;20035;-81
2021/08/20 05:13:02;;;;;;;7.22;1.52;;;17.20;99.90;;;;;;5041427;28;20081;-81
2021/08/20 05:15:27;;;;;;;3.42;1.27;;;17.30;99.90;;;;;;5043591;28;20366;-81
2021/08/20 05:17:57;;;;;;;3.33;1.23;;;17.30;99.90;;;;;;5039220;28;20036;-82
2021/08/20 05:20:23;;;;;;;2.88;1.30;;;17.30;99.90;;;;;;5043339;28;20540;-81
2021/08/20 05:22:52;;;;;;;2.90;1.30;;;17.40;99.90;;;;;;5023696;28;20457;-81
2021/08/20 05:25:19;;;;;;;3.03;1.10;;;17.40;99.90;;;;;;5045897;28;20059;-81
2021/08/20 05:27:45;;;;;;;2.78;1.20;;;17.50;99.90;;;;;;5023840;28;20067;-81
2021/08/20 05:30:11;;;;;;;5.65;1.45;;;17.50;99.90;;;;;;5037590;28;20029;-81
2021/08/20 05:32:37;;;;;;;3.92;1.30;;;17.60;99.90;;;;;;5036854;28;20029;-82
2021/08/20 05:35:10;;;;;;;6.00;1.35;;;17.60;99.90;;;;;;5034568;28;21130;-81
2021/08/20 05:37:36;;;;;;;6.47;1.23;;;17.60;99.90;;;;;;5034337;28;20075;-81
2021/08/20 05:40:03;;;;;;;3.55;1.10;;;17.70;99.90;;;;;;5038031;28;20029;-82
2021/08/20 05:42:29;;;;;;;3.55;1.10;;;17.70;99.90;;;;;;5038513;28;20039;-82
2021/08/20 05:44:55;;;;;;;3.92;1.42;;;17.70;99.90;;;;;;5033742;28;20104;-82
2021/08/20 05:47:21;;;;;;;3.33;1.35;;;17.70;99.90;;;;;;5042919;28;20029;-83
2021/08/20 05:49:47;;;;;;;2.58;1.23;;;17.80;99.90;;;;;;5048126;28;20026;-82
2021/08/20 05:52:13;;;;;;;3.15;1.45;;;17.80;99.90;;;;;;5036520;28;20041;-82
2021/08/20 05:54:38;;;;;;;2.92;1.23;;;17.80;99.90;;;;;;5036234;28;20644;-82
2021/08/20 05:57:04;;;;;;;3.58;1.42;;;17.80;99.90;;;;;;5037172;28;20048;-82
2021/08/20 05:59:30;;;;;;;4.68;1.50;;;17.90;99.90;;;;;;5035969;28;20022;-81
2021/08/20 06:01:55;;;;;;;7.95;1.90;;;17.90;99.90;;;;;;5038339;28;20064;-81
2021/08/20 06:04:21;;;;;;;6.13;1.50;;;17.90;99.90;;;;;;5038170;28;20112;-82
2021/08/20 06:06:47;;;;;;;2.78;1.17;;;17.90;99.90;;;;;;5042791;28;20021;-82
2021/08/20 06:09:12;;;;;;;4.75;1.40;;;17.80;99.90;;;;;;5036388;28;20033;-82
2021/08/20 06:11:38;;;;;;;4.20;1.67;;;17.70;99.90;;;;;;5035866;28;20037;-82
2021/08/20 06:14:03;;;;;;;5.82;1.40;;;17.90;99.90;;;;;;5043132;28;20028;-83
2021/08/20 06:16:29;;;;;;;6.28;1.98;;;17.90;99.90;;;;;;5044844;28;20017;-82
2021/08/20 06:18:55;;;;;;;4.50;1.83;;;17.90;99.90;;;;;;5032973;28;20485;-82
2021/08/20 06:21:20;;;;;;;5.22;1.92;;;17.90;99.90;;;;;;5037071;28;20066;-83
2021/08/20 06:23:46;;;;;;;4.32;1.88;;;18.00;99.90;;;;;;5019640;28;20044;-82
2021/08/20 06:26:12;;;;;;;6.30;2.08;;;18.10;99.90;;;;;;5036966;28;20375;-83
2021/08/20 06:28:37;;;;;;;4.82;1.83;;;18.10;99.90;;;;;;5035216;28;20049;-83
2021/08/20 06:31:04;;;;;;;6.45;1.60;;;18.20;99.90;;;;;;5035865;28;20571;-83
2021/08/20 06:33:34;;;;;;;4.38;1.85;;;18.30;99.90;;;;;;5031521;28;20018;-83
2021/08/20 06:36:01;;;;;;;4.30;1.80;;;18.30;99.90;;;;;;5027164;28;20028;-83
2021/08/20 06:38:26;;;;;;;7.07;1.90;;;18.40;99.90;;;;;;5035152;28;20026;-83
2021/08/20 06:40:53;;;;;;;8.38;1.95;;;18.60;99.90;;;;;;5011496;28;20040;-83
2021/08/20 06:43:19;;;;;;;8.27;1.77;;;18.60;99.90;;;;;;5004305;28;20026;-83
2021/08/20 06:45:46;;;;;;;4.78;1.90;;;18.60;99.90;;;;;;5017966;28;20022;-83
2021/08/20 06:48:11;;;;;;;3.92;1.65;;;18.80;99.90;;;;;;5033799;28;20037;-83
2021/08/20 06:50:37;;;;;;;5.93;2.25;;;18.80;99.90;;;;;;5017047;28;20134;-83
2021/08/20 06:53:03;;;;;;;3.78;1.92;;;18.80;99.90;;;;;;5034593;28;20041;-83
2021/08/20 06:55:32;;;;;;;5.05;1.83;;;18.80;99.90;;;;;;5030422;28;20081;-83
2021/08/20 06:57:57;;;;;;;3.80;2.15;;;18.90;99.90;;;;;;5029504;28;20056;-82
2021/08/20 07:00:23;;;;;;;4.18;1.85;;;18.90;99.90;;;;;;5034967;28;20021;-85
2021/08/20 07:02:49;;;;;;;5.55;2.20;;;19.00;99.90;;;;;;5036173;28;20158;-85
2021/08/20 07:05:16;;;;;;;4.80;2.20;;;19.00;99.90;;;;;;5017947;28;20490;-85
2021/08/20 07:07:45;;;;;;;6.43;2.53;;;19.00;99.90;;;;;;5034045;28;20022;-85
2021/08/20 07:10:17;;;;;;;5.63;2.60;;;19.20;99.90;;;;;;5027899;28;20029;-85
2021/08/20 07:12:43;;;;;;;4.70;2.30;;;19.50;99.90;;;;;;5016687;28;20036;-86
2021/08/20 07:15:12;;;;;;;4.57;2.28;;;19.80;99.90;;;;;;5033618;28;20041;-86
2021/08/20 07:17:38;;;;;;;5.72;2.67;;;20.00;99.90;;;;;;5008246;28;20056;-86
2021/08/20 07:20:06;;;;;;;10.30;3.00;;;20.00;99.90;;;;;;5014846;28;20371;-85
2021/08/20 07:22:31;;;;;;;4.80;2.80;;;20.00;99.90;;;;;;5045658;28;20025;-86
2021/08/20 07:24:57;;;;;;;5.78;3.10;;;20.10;99.90;;;;;;5024185;28;20034;-85
2021/08/20 07:27:23;;;;;;;6.50;3.33;;;20.00;99.90;;;;;;5020595;28;20037;-85
2021/08/20 07:29:49;;;;;;;8.77;3.33;;;19.90;99.90;;;;;;5024611;28;20071;-89
2021/08/20 07:32:16;;;;;;;5.80;3.08;;;20.00;99.90;;;;;;5022874;28;20021;-89
2021/08/20 07:34:42;;;;;;;6.85;3.42;;;20.00;99.90;;;;;;5043683;28;20056;-86
2021/08/20 07:37:08;;;;;;;6.82;4.00;;;19.80;99.90;;;;;;5011135;28;20029;-85
2021/08/20 07:39:36;;;;;;;6.28;3.22;;;19.90;99.90;;;;;;5039902;28;20025;-85
2021/08/20 07:42:05;;;;;;;5.50;3.03;;;20.00;99.90;;;;;;5047830;28;20052;-85
2021/08/20 07:44:31;;;;;;;7.88;3.60;;;20.30;99.90;;;;;;5037727;28;20025;-86
2021/08/20 07:46:57;;;;;;;7.30;3.90;;;20.50;99.90;;;;;;5044045;28;20656;-86
2021/08/20 07:49:24;;;;;;;6.85;3.90;;;20.60;99.90;;;;;;5040480;28;20072;-86
2021/08/20 07:51:49;;;;;;;5.85;3.60;;;20.80;99.90;;;;;;5020440;28;20045;-86
2021/08/20 07:54:16;;;;;;;6.82;3.72;;;20.90;99.90;;;;;;5039027;28;20022;-87
2021/08/20 07:56:44;;;;;;;6.70;3.10;;;21.10;99.90;;;;;;5017211;28;20087;-89
2021/08/20 07:59:09;;;;;;;5.72;2.90;;;21.20;99.90;;;;;;5021844;28;20153;-88
2021/08/20 08:01:35;;;;;;;6.72;3.22;;;21.50;99.90;;;;;;5033789;28;20116;-89
2021/08/20 08:04:01;;;;;;;8.95;3.80;;;21.70;99.90;;;;;;5053926;22;20109;-83
2021/08/20 08:06:38;;;;;;;6.80;3.45;;;21.60;99.90;;;;;;5033204;28;20093;-81
2021/08/20 08:09:05;;;;;;;8.50;3.17;;;21.30;99.90;;;;;;5030872;28;20029;-81
2021/08/20 08:11:31;;;;;;;6.07;3.20;;;21.20;99.90;;;;;;5012247;28;20037;-83
2021/08/20 08:14:05;;;;;;;5.35;3.13;;;21.10;99.90;;;;;;5027886;28;20048;-82
2021/08/20 08:16:34;;;;;;;8.68;3.20;;;20.90;99.90;;;;;;5018832;28;20025;-83
2021/08/20 08:19:01;;;;;;;6.13;3.00;;;20.80;99.90;;;;;;4988600;28;20029;-81
2021/08/20 08:21:28;;;;;;;5.53;2.47;;;20.90;99.90;;;;;;5000308;28;20029;-83
2021/08/20 08:23:56;;;;;;;9.80;2.63;;;21.20;99.90;;;;;;4999702;28;20028;-84
2021/08/20 08:26:23;;;;;;;5.90;3.05;;;21.30;99.90;;;;;;4999922;28;20026;-83
2021/08/20 08:28:50;;;;;;;4.88;2.55;;;21.40;99.90;;;;;;5019468;28;20022;-83
2021/08/20 08:31:16;;;;;;;5.38;2.92;;;21.70;99.90;;;;;;5017664;28;20045;-84
2021/08/20 08:33:42;;;;;;;5.65;2.80;;;21.90;99.90;;;;;;5004610;28;20033;-83
2021/08/20 08:36:10;;;;;;;6.63;3.03;;;21.90;99.90;;;;;;5013638;28;20371;-84
2021/08/20 08:38:36;;;;;;;4.70;2.67;;;21.90;99.90;;;;;;5021843;28;20114;-83
2021/08/20 08:41:04;;;;;;;4.32;2.33;;;21.70;99.90;;;;;;5014506;28;20026;-83
2021/08/20 08:43:30;;;;;;;7.72;2.30;;;21.50;99.90;;;;;;5022378;28;20061;-82
2021/08/20 08:46:05;;;;;;;5.75;2.88;;;21.50;99.90;;;;;;5019960;28;20022;-83
2021/08/20 08:48:37;;;;;;;4.70;2.25;;;21.40;99.90;;;;;;5023823;28;20453;-83
2021/08/20 08:51:07;;;;;;;6.78;2.60;;;21.50;99.90;;;;;;5030223;28;20033;-82
2021/08/20 08:53:33;;;;;;;7.07;2.83;;;21.50;99.90;;;;;;4994145;28;20048;-81
2021/08/20 08:55:59;;;;;;;6.38;3.33;;;21.40;99.90;;;;;;4996079;28;20029;-82
2021/08/20 08:58:26;;;;;;;4.15;2.60;;;21.30;99.90;;;;;;5005552;28;20052;-82
2021/08/20 09:00:52;;;;;;;4.97;2.67;;;21.30;99.90;;;;;;4999061;28;20040;-81
2021/08/20 09:03:31;;;;;;;7.28;2.88;;;21.50;99.90;;;;;;5033951;28;20026;-83
2021/08/20 09:05:59;;;;;;;5.20;2.20;;;21.70;99.90;;;;;;4996462;28;20055;-82
2021/08/20 09:08:27;;;;;;;5.82;2.45;;;22.00;99.90;;;;;;5008985;28;20168;-83
2021/08/20 09:10:58;;;;;;;4.85;2.55;;;22.20;99.90;;;;;;5009921;28;20030;-83
2021/08/20 09:13:25;;;;;;;6.68;2.60;;;22.40;99.90;;;;;;5012466;28;20041;-84
2021/08/20 09:16:13;;;;;;;3.33;2.00;;;22.80;99.90;;;;;;4999038;28;20061;-83
2021/08/20 09:18:41;;;;;;;4.15;2.08;;;23.20;99.90;;;;;;4996610;28;20026;-83
2021/08/20 09:21:07;;;;;;;4.28;1.90;;;23.60;99.90;;;;;;4996825;28;20025;-83
2021/08/20 09:23:35;;;;;;;3.40;1.67;;;24.00;99.90;;;;;;5011594;28;20101;-83
2021/08/20 09:26:03;;;;;;;3.95;1.80;;;24.10;99.90;;;;;;5006645;28;20073;-83
2021/08/20 09:28:34;;;;;;;6.28;2.70;;;24.00;99.90;;;;;;5008558;28;20037;-83
2021/08/20 09:31:07;;;;;;;6.18;3.47;;;23.70;99.90;;;;;;4990181;28;20112;-83
2021/08/20 09:33:42;;;;;;;6.43;3.47;;;23.10;99.90;;;;;;5007831;28;20045;-82
2021/08/20 09:36:15;;;;;;;5.97;3.28;;;22.60;99.90;;;;;;5010135;28;20096;-83
2021/08/20 09:38:52;;;;;;;7.15;3.92;;;22.40;99.90;;;;;;4988863;28;20084;-83
2021/08/20 09:41:27;;;;;;;6.90;4.40;;;22.40;99.90;;;;;;5011970;28;20021;-83
2021/08/20 09:44:00;;;;;;;6.60;3.58;;;22.80;99.90;;;;;;5008226;28;20034;-84
2021/08/20 09:46:52;;;;;;;6.38;3.67;;;23.40;99.90;;;;;;4994519;28;20054;-83
2021/08/20 09:49:17;;;;;;;;;;;23.70;99.90;;;;;;5013054;28;20107;-84
2021/08/20 09:51:46;;;;;;;6.30;3.67;;;24.00;99.90;;;;;;5017569;28;20281;-84
2021/08/20 09:54:23;;;;;;;5.47;3.15;;;23.70;99.90;;;;;;4993497;28;20045;-84
2021/08/20 09:56:50;;;;;;;6.22;3.25;;;23.50;99.90;;;;;;4984550;28;20040;-83
2021/08/20 09:59:16;;;;;;;6.95;3.33;;;23.30;99.90;;;;;;5011916;28;20446;-84
2021/08/20 10:01:47;;;;;;;5.78;3.38;;;22.80;99.90;;;;;;4994576;28;20021;-83
2021/08/20 10:04:15;;;;;;;5.65;3.15;;;22.50;99.90;;;;;;5009974;28;20116;-83
2021/08/20 10:06:45;;;;;;;5.95;3.38;;;22.40;99.90;;;;;;5016336;28;20095;-83
2021/08/20 10:09:13;;;;;;;6.88;3.28;;;22.20;99.90;;;;;;4993211;28;20441;-83
2021/08/20 10:11:46;;;;;;;5.07;2.97;;;22.50;99.90;;;;;;4991971;28;20039;-83
2021/08/20 10:14:12;;;;;;;6.38;3.08;;;23.10;99.90;;;;;;5014559;28;20034;-83
2021/08/20 10:16:39;;;;;;;5.65;2.72;;;23.50;99.90;;;;;;5007788;28;20383;-83
2021/08/20 10:19:07;;;;;;;4.20;2.50;;;24.10;99.90;;;;;;4987529;28;20030;-83
2021/08/20 10:21:35;;;;;;;5.75;3.05;;;24.30;99.90;;;;;;4992578;28;20521;-83
2021/08/20 10:24:02;;;;;;;4.18;2.53;;;24.30;99.90;;;;;;5006732;28;20445;-83
2021/08/20 10:26:29;;;;;;;4.68;2.70;;;24.10;99.90;;;;;;4991841;28;20088;-83
2021/08/20 10:28:56;;;;;;;6.72;3.85;;;24.20;99.90;;;;;;5010162;28;20030;-82
2021/08/20 10:31:23;;;;;;;4.68;2.90;;;24.60;99.90;;;;;;5012465;28;20076;-82
2021/08/20 10:33:49;;;;;;;4.50;2.40;;;24.50;99.90;;;;;;5009337;28;20413;-82
2021/08/20 10:36:14;;;;;;;4.60;2.70;;;24.50;99.90;;;;;;5007998;28;20034;-84
2021/08/20 10:38:49;;;;;;;5.50;2.25;;;24.70;99.90;;;;;;4995179;28;20086;-85
2021/08/20 10:41:22;;;;;;;4.22;2.47;;;24.80;98.80;;;;;;5015540;28;20048;-85
2021/08/20 10:44:10;;;;;;;4.32;2.47;;;25.20;97.70;;;;;;5035663;28;20026;-84
2021/08/20 10:46:37;;;;;;;4.75;2.70;;;25.50;98.50;;;;;;5014690;28;20018;-83
2021/08/20 10:49:21;;;;;;;7.72;3.13;;;25.10;99.70;;;;;;5024489;28;20021;-83
2021/08/20 10:51:49;;;;;;;5.15;2.90;;;24.50;99.90;;;;;;4996867;28;20057;-83
2021/08/20 10:54:36;;;;;;;6.97;2.95;;;24.10;99.90;;;;;;4997184;28;20025;-83
2021/08/20 10:57:06;;;;;;;6.78;2.90;;;23.90;99.90;;;;;;4973581;28;20054;-83
2021/08/20 10:59:45;;;;;;;5.30;2.70;;;24.10;99.90;;;;;;5021863;28;20094;-84
2021/08/20 11:02:23;;;;;;;6.15;2.38;;;24.40;99.90;;;;;;5012035;28;20144;-84
2021/08/20 11:05:10;;;;;;;4.97;2.95;;;24.90;99.90;;;;;;5002339;28;20026;-85
2021/08/20 11:07:38;;;;;;;5.00;2.85;;;24.90;99.50;;;;;;5014072;28;20217;-84
2021/08/20 11:10:11;;;;;;;7.45;2.75;;;24.70;99.10;;;;;;5002293;28;20034;-82
2021/08/20 11:12:57;;;;;;;5.22;2.67;;;25.00;99.20;;;;;;5003626;28;20025;-83
2021/08/20 11:15:30;;;;;;;4.78;1.90;;;25.10;98.00;;;;;;5020242;28;20112;-83
2021/08/20 11:18:06;;;;;;;3.90;2.10;;;25.30;98.50;;;;;;5006630;28;20022;-83
2021/08/20 11:20:49;;;;;;;4.18;2.22;;;25.40;97.80;;;;;;5000423;28;20033;-84
2021/08/20 11:23:17;;;;;;;5.03;2.20;;;25.80;97.00;;;;;;5000454;28;20418;-83
2021/08/20 11:25:45;;;;;;;3.28;1.85;;;25.80;96.00;;;;;;4995895;28;20040;-83
2021/08/20 11:28:24;;;;;;;3.65;2.10;;;25.60;95.80;;;;;;5014271;28;20037;-83
2021/08/20 11:30:59;;;;;;;3.83;1.90;;;25.60;96.10;;;;;;5014832;28;20042;-83
2021/08/20 11:33:29;;;;;;;3.70;1.77;;;25.50;95.90;;;;;;5002583;28;20030;-83
2021/08/20 11:36:01;;;;;;;4.80;2.00;;;25.80;95.80;;;;;;5016177;28;20096;-83
2021/08/20 11:38:32;;;;;;;3.65;1.98;;;26.10;95.70;;;;;;5013146;28;20397;-83
2021/08/20 11:41:05;;;;;;;6.97;2.10;;;26.20;95.60;;;;;;5013813;28;20031;-83
2021/08/20 11:43:32;;;;;;;3.30;2.05;;;26.40;94.90;;;;;;5017563;28;20022;-84
2021/08/20 11:46:05;;;;;;;5.97;2.33;;;26.20;94.40;;;;;;5016927;28;20026;-83
2021/08/20 11:48:43;;;;;;;4.05;2.20;;;25.80;94.90;;;;;;4997675;28;20026;-83
2021/08/20 11:51:10;;;;;;;4.72;1.92;;;25.60;95.60;;;;;;5013866;28;20065;-83
2021/08/20 11:53:38;;;;;;;5.15;1.98;;;25.90;95.30;;;;;;5018346;28;20517;-83
2021/08/20 11:56:11;;;;;;;4.15;1.80;;;26.30;95.30;;;;;;5016765;28;20061;-83
2021/08/20 11:58:38;;;;;;;4.30;2.22;;;26.50;94.30;;;;;;5014695;28;20044;-83
2021/08/20 12:01:04;;;;;;;4.47;2.17;;;26.80;94.40;;;;;;5016977;28;20033;-84
2021/08/20 12:03:29;;;;;;;4.10;2.28;;;26.80;94.30;;;;;;5022117;28;20105;-83
2021/08/20 12:06:06;;;;;;;4.55;2.20;;;26.50;94.20;;;;;;4995535;28;20113;-83
2021/08/20 12:08:32;;;;;;;3.95;2.30;;;26.40;94.50;;;;;;5017223;28;20022;-84
2021/08/20 12:10:58;;;;;;;5.25;2.08;;;26.40;94.30;;;;;;5020848;28;20022;-84
2021/08/20 12:13:23;;;;;;;4.70;2.20;;;26.00;94.50;;;;;;5011611;28;20029;-84
2021/08/20 12:15:49;;;;;;;3.85;2.00;;;25.90;94.00;;;;;;4999845;28;20022;-84
2021/08/20 12:18:45;;;;;;;4.28;2.20;;;26.00;93.90;;;;;;5001437;28;20030;-84
2021/08/20 12:21:16;;;;;;;3.63;2.10;;;26.10;93.80;;;;;;4994776;28;20502;-84
2021/08/20 12:24:01;;;;;;;3.67;1.88;;;25.90;94.60;;;;;;5017268;28;20030;-84
2021/08/20 12:26:30;;;;;;;4.07;1.70;;;25.70;94.20;;;;;;5013163;28;20399;-84
2021/08/20 12:28:56;;;;;;;5.50;2.15;;;26.50;93.90;;;;;;5016094;28;20188;-84
2021/08/20 12:31:23;;;;;;;3.75;1.80;;;27.00;93.20;;;;;;5017179;28;20036;-84
2021/08/20 12:34:00;;;;;;;3.42;2.10;;;27.10;92.30;;;;;;4997877;28;20025;-84
2021/08/20 12:36:26;;;;;;;4.60;2.13;;;26.70;92.50;;;;;;5001206;28;20044;-84
2021/08/20 12:39:13;;;;;;;3.88;1.95;;;26.30;93.20;;;;;;5006203;28;20022;-84
2021/08/20 12:41:40;;;;;;;4.28;2.20;;;25.90;93.50;;;;;;5036591;28;20047;-83
2021/08/20 12:44:08;;;;;;;4.15;2.20;;;25.50;94.10;;;;;;5024003;28;20022;-82
2021/08/20 12:46:38;;;;;;;5.00;1.83;;;25.10;94.10;;;;;;4998127;28;20037;-81
2021/08/20 13:32:04;;;;;;;6.43;2.08;;;27.10;90.80;;;;;;5066280;28;20160;-83
2021/08/20 13:34:30;;;;;;;3.92;1.73;;;27.20;91.00;;;;;;5069441;28;20024;-84